createdAt,value
2018-11-07T00:00:05.920Z,4.83
2018-11-07T00:02:34.863Z,4.57
2018-11-07T00:05:04.046Z,4.80
2018-11-07T00:07:33.313Z,4.33
2018-11-07T00:10:19.104Z,5.17
2018-11-07T00:12:48.150Z,5.43
2018-11-07T00:15:17.628Z,5.80
2018-11-07T00:17:46.912Z,5.10
2018-11-07T00:20:15.877Z,5.33
2018-11-07T00:22:44.796Z,5.17
2018-11-07T00:25:13.792Z,5.67
2018-11-07T00:27:42.779Z,5.20
2018-11-07T00:30:12.099Z,4.67
2018-11-07T00:32:41.206Z,5.67
2018-11-07T00:35:11.826Z,6.00
2018-11-07T00:37:41.478Z,5.50
2018-11-07T00:40:10.651Z,5.07
2018-11-07T00:42:40.016Z,5.23
2018-11-07T00:45:10.993Z,5.57
2018-11-07T00:47:40.021Z,5.60
2018-11-07T00:50:12.462Z,5.40
2018-11-07T00:52:42.037Z,5.30
2018-11-07T00:55:11.436Z,6.20
2018-11-07T00:57:40.585Z,5.83
2018-11-07T01:00:12.372Z,5.00
2018-11-07T01:02:41.438Z,5.27
2018-11-07T01:05:11.933Z,5.37
2018-11-07T01:07:41.865Z,6.13
2018-11-07T01:10:11.137Z,5.97
2018-11-07T01:12:40.910Z,5.17
2018-11-07T01:15:10.907Z,5.50
2018-11-07T01:17:39.944Z,5.40
2018-11-07T01:20:10.284Z,5.80
2018-11-07T01:22:39.276Z,6.17
2018-11-07T01:25:08.696Z,5.50
2018-11-07T01:27:37.650Z,5.57
2018-11-07T01:30:08.870Z,5.83
2018-11-07T01:32:38.068Z,5.97
2018-11-07T01:35:07.070Z,6.40
2018-11-07T01:37:36.004Z,5.20
2018-11-07T01:40:07.618Z,5.70
2018-11-07T01:42:36.579Z,5.73
2018-11-07T01:45:07.072Z,5.93
2018-11-07T01:47:36.165Z,5.67
2018-11-07T01:50:06.545Z,5.23
2018-11-07T01:52:35.537Z,5.30
2018-11-07T01:55:05.139Z,6.30
2018-11-07T01:57:34.535Z,5.43
2018-11-07T02:00:03.888Z,5.67
2018-11-07T02:02:32.807Z,6.00
2018-11-07T02:05:01.743Z,5.70
2018-11-07T02:07:30.765Z,6.33
2018-11-07T02:09:59.857Z,6.00
2018-11-07T02:12:28.867Z,5.13
2018-11-07T02:14:57.774Z,5.73
2018-11-07T02:17:26.745Z,5.73
2018-11-07T02:19:55.705Z,6.03
2018-11-07T02:22:25.073Z,5.40
2018-11-07T02:24:54.097Z,6.73
2018-11-07T02:27:23.185Z,6.40
2018-11-07T02:29:52.308Z,7.27
2018-11-07T02:32:21.620Z,6.00
2018-11-07T02:34:50.656Z,4.97
2018-11-07T02:37:19.572Z,6.23
2018-11-07T02:39:48.662Z,5.83
2018-11-07T02:42:17.714Z,5.73
2018-11-07T02:44:46.773Z,5.97
2018-11-07T02:47:15.676Z,5.63
2018-11-07T02:49:44.677Z,6.27
2018-11-07T02:52:13.974Z,7.63
2018-11-07T02:54:43.616Z,7.77
2018-11-07T02:57:12.927Z,8.73
2018-11-07T02:59:42.237Z,8.13
2018-11-07T03:02:11.415Z,8.80
2018-11-07T03:04:40.468Z,8.57
2018-11-07T03:07:09.517Z,8.73
2018-11-07T03:09:38.502Z,9.60
2018-11-07T03:12:07.502Z,8.33
2018-11-07T03:14:36.489Z,8.40
2018-11-07T03:17:05.552Z,9.47
2018-11-07T03:19:34.536Z,9.63
2018-11-07T03:22:03.568Z,10.60
2018-11-07T03:24:32.594Z,10.07
2018-11-07T03:27:01.618Z,9.07
2018-11-07T03:29:30.584Z,10.50
2018-11-07T03:31:59.561Z,9.90
2018-11-07T03:34:28.589Z,7.50
2018-11-07T03:36:57.685Z,8.87
2018-11-07T03:39:26.616Z,9.47
2018-11-07T03:41:55.670Z,9.93
2018-11-07T03:44:24.752Z,9.37
2018-11-07T03:46:53.684Z,9.40
2018-11-07T03:49:22.608Z,10.53
2018-11-07T03:51:51.577Z,10.60
2018-11-07T03:54:20.592Z,9.83
2018-11-07T03:56:49.560Z,9.27
2018-11-07T03:59:18.553Z,10.70
2018-11-07T04:01:47.497Z,10.07
2018-11-07T04:04:16.401Z,9.03
2018-11-07T04:06:45.409Z,10.03
2018-11-07T04:09:14.380Z,11.83
2018-11-07T04:11:44.036Z,11.43
2018-11-07T04:14:13.089Z,10.50
2018-11-07T04:16:42.059Z,8.93
2018-11-07T04:19:11.055Z,10.73
2018-11-07T04:21:40.041Z,8.90
2018-11-07T04:24:09.040Z,9.93
2018-11-07T04:26:38.988Z,9.77
2018-11-07T04:29:08.063Z,9.87
2018-11-07T04:31:37.038Z,11.30
2018-11-07T04:34:06.156Z,11.73
2018-11-07T04:36:35.243Z,10.60
2018-11-07T04:39:05.477Z,10.00
2018-11-07T04:41:34.463Z,10.20
2018-11-07T04:44:03.529Z,10.13
2018-11-07T04:46:32.461Z,9.93
2018-11-07T04:49:01.353Z,10.23
2018-11-07T04:51:30.306Z,11.43
2018-11-07T04:53:59.245Z,11.03
2018-11-07T04:56:28.331Z,10.30
2018-11-07T04:58:57.246Z,8.97
2018-11-07T05:01:26.250Z,8.87
2018-11-07T05:03:55.927Z,9.07
2018-11-07T05:06:24.854Z,9.37
2018-11-07T05:08:54.156Z,10.10
2018-11-07T05:11:23.136Z,8.93
2018-11-07T05:13:52.267Z,11.03
2018-11-07T05:16:21.269Z,10.70
2018-11-07T05:18:50.308Z,8.87
2018-11-07T05:21:19.280Z,9.97
2018-11-07T05:23:48.238Z,10.47
2018-11-07T05:26:17.310Z,9.43
2018-11-07T05:28:46.172Z,9.90
2018-11-07T05:31:15.102Z,9.67
2018-11-07T05:33:44.055Z,10.13
2018-11-07T05:36:13.015Z,9.53
2018-11-07T05:38:41.912Z,10.17
2018-11-07T05:41:11.177Z,8.93
2018-11-07T05:43:40.079Z,13.10
2018-11-07T05:46:09.042Z,11.80
2018-11-07T05:48:38.013Z,12.83
2018-11-07T05:51:06.956Z,10.80
2018-11-07T05:53:36.041Z,12.67
2018-11-07T05:56:05.366Z,10.57
2018-11-07T05:58:34.322Z,10.97
2018-11-07T06:01:03.291Z,10.67
2018-11-07T06:03:32.215Z,10.20
2018-11-07T06:06:01.208Z,10.87
2018-11-07T06:08:30.808Z,13.00
2018-11-07T06:10:59.818Z,11.73
2018-11-07T06:13:28.796Z,10.67
2018-11-07T06:15:57.821Z,12.47
2018-11-07T06:18:26.745Z,14.03
2018-11-07T06:20:57.004Z,11.30
2018-11-07T06:23:25.958Z,15.17
2018-11-07T06:25:54.883Z,12.70
2018-11-07T06:28:23.784Z,13.57
2018-11-07T06:30:52.774Z,14.17
2018-11-07T06:33:21.724Z,14.43
2018-11-07T06:35:50.708Z,11.93
2018-11-07T06:38:19.699Z,14.13
2018-11-07T06:40:48.609Z,11.43
2018-11-07T06:43:17.551Z,12.43
2018-11-07T06:45:46.901Z,15.30
2018-11-07T06:48:15.845Z,13.00
2018-11-07T06:50:44.819Z,14.60
2018-11-07T06:53:14.137Z,14.30
2018-11-07T06:55:43.030Z,14.43
2018-11-07T06:58:12.008Z,11.77
2018-11-07T07:00:41.268Z,15.23
2018-11-07T07:03:14.387Z,16.17
2018-11-07T07:05:43.616Z,13.93
2018-11-07T07:08:12.561Z,13.47
2018-11-07T07:10:41.560Z,15.83
2018-11-07T07:13:10.503Z,13.67
2018-11-07T07:15:39.447Z,14.73
2018-11-07T07:18:08.581Z,15.73
2018-11-07T07:20:37.535Z,15.07
2018-11-07T07:23:06.490Z,12.93
2018-11-07T07:25:35.843Z,13.70
2018-11-07T07:28:04.965Z,13.47
2018-11-07T07:30:33.960Z,15.43
2018-11-07T07:33:02.956Z,13.63
2018-11-07T07:35:31.848Z,14.33
2018-11-07T07:38:00.834Z,14.37
2018-11-07T07:40:29.752Z,13.90
2018-11-07T07:42:58.712Z,14.93
2018-11-07T07:45:27.788Z,13.67
2018-11-07T07:47:56.665Z,13.67
2018-11-07T07:50:25.645Z,13.43
2018-11-07T07:52:54.693Z,14.07
2018-11-07T07:55:23.533Z,14.10
2018-11-07T07:57:53.093Z,16.60
2018-11-07T08:00:22.018Z,14.70
2018-11-07T08:02:52.445Z,15.57
2018-11-07T08:05:21.655Z,14.27
2018-11-07T08:07:50.587Z,14.70
2018-11-07T08:10:20.763Z,14.77
2018-11-07T08:12:51.083Z,14.70
2018-11-07T08:15:20.620Z,13.70
2018-11-07T08:17:49.568Z,14.17
2018-11-07T08:20:18.935Z,14.50
2018-11-07T08:22:48.560Z,13.40
2018-11-07T08:25:17.500Z,14.00
2018-11-07T08:27:46.475Z,13.83
2018-11-07T08:30:18.145Z,13.67
2018-11-07T08:32:47.095Z,13.73
2018-11-07T08:35:16.377Z,12.47
2018-11-07T08:37:46.076Z,14.27
2018-11-07T08:40:20.288Z,13.43
2018-11-07T08:42:49.835Z,14.10
2018-11-07T08:45:19.271Z,14.23
2018-11-07T08:47:48.820Z,14.50
2018-11-07T08:50:19.144Z,13.87
2018-11-07T08:52:48.521Z,13.53
2018-11-07T08:55:18.838Z,13.23
2018-11-07T08:57:47.761Z,12.43
2018-11-07T09:00:18.137Z,13.63
2018-11-07T09:02:47.296Z,12.87
2018-11-07T09:05:17.382Z,14.00
2018-11-07T09:07:46.933Z,13.30
2018-11-07T09:10:17.593Z,14.67
2018-11-07T09:12:46.768Z,14.53
2018-11-07T09:15:17.594Z,13.23
2018-11-07T09:17:46.553Z,14.10
2018-11-07T09:20:17.172Z,14.73
2018-11-07T09:22:46.109Z,13.53
2018-11-07T09:25:15.816Z,13.47
2018-11-07T09:27:45.477Z,13.17
2018-11-07T09:30:16.188Z,13.27
2018-11-07T09:32:45.135Z,12.83
2018-11-07T09:35:14.469Z,11.53
2018-11-07T09:37:43.408Z,12.47
2018-11-07T09:40:14.010Z,12.93
2018-11-07T09:42:43.529Z,11.03
2018-11-07T09:45:14.016Z,10.60
2018-11-07T09:47:43.761Z,11.60
2018-11-07T09:50:13.866Z,10.80
2018-11-07T09:52:43.066Z,11.17
2018-11-07T09:55:13.820Z,10.57
2018-11-07T09:57:42.863Z,10.83
2018-11-07T10:00:14.840Z,10.17
2018-11-07T10:02:44.447Z,10.27
2018-11-07T10:05:14.479Z,9.33
2018-11-07T10:07:43.389Z,9.83
2018-11-07T10:10:14.952Z,9.37
2018-11-07T10:12:44.354Z,10.40
2018-11-07T10:15:13.649Z,10.37
2018-11-07T10:17:42.732Z,10.53
2018-11-07T10:20:14.628Z,9.93
2018-11-07T10:22:44.314Z,9.67
2018-11-07T10:25:13.655Z,10.67
2018-11-07T10:27:43.065Z,10.60
2018-11-07T10:30:13.756Z,10.08
2018-11-07T10:32:44.061Z,9.03
2018-11-07T10:35:13.232Z,10.13
2018-11-07T10:37:42.404Z,11.27
2018-11-07T10:40:13.962Z,11.47
2018-11-07T10:42:43.330Z,11.00
2018-11-07T10:45:12.611Z,11.83
2018-11-07T10:47:42.348Z,10.63
2018-11-07T10:50:12.443Z,9.70
2018-11-07T10:52:42.244Z,9.73
2018-11-07T10:55:12.101Z,9.67
2018-11-07T10:57:41.053Z,9.57
2018-11-07T11:00:16.691Z,8.80
2018-11-07T11:02:45.661Z,10.00
2018-11-07T11:05:16.248Z,8.90
2018-11-07T11:07:45.363Z,8.73
2018-11-07T11:10:14.561Z,9.37
2018-11-07T11:12:44.521Z,10.67
2018-11-07T11:15:13.542Z,9.47
2018-11-07T11:17:42.920Z,10.13
2018-11-07T11:20:13.526Z,10.67
2018-11-07T11:22:42.531Z,11.47
2018-11-07T11:25:11.673Z,11.13
2018-11-07T11:27:40.746Z,11.90
2018-11-07T11:30:10.187Z,10.63
2018-11-07T11:32:39.440Z,12.05
2018-11-07T11:35:10.448Z,11.53
2018-11-07T11:37:39.504Z,11.60
2018-11-07T11:40:10.898Z,10.60
2018-11-07T11:42:40.286Z,12.10
2018-11-07T11:45:10.944Z,12.03
2018-11-07T11:47:40.292Z,13.25
2018-11-07T11:50:12.000Z,12.18
2018-11-07T11:52:41.648Z,12.90
2018-11-07T11:55:11.168Z,13.30
2018-11-07T11:57:40.894Z,12.98
2018-11-07T12:00:11.965Z,11.22
2018-11-07T12:02:40.728Z,11.25
2018-11-07T12:05:11.425Z,11.08
2018-11-07T12:07:40.945Z,12.28
2018-11-07T12:10:16.116Z,12.73
2018-11-07T12:12:46.691Z,12.78
2018-11-07T12:15:16.765Z,11.30
2018-11-07T12:17:45.787Z,12.88
2018-11-07T12:20:14.686Z,11.88
2018-11-07T12:22:43.698Z,13.10
2018-11-07T12:25:16.548Z,12.93
2018-11-07T12:27:45.636Z,13.03
2018-11-07T12:30:16.576Z,12.73
2018-11-07T12:32:46.784Z,13.08
2018-11-07T12:35:16.304Z,13.35
2018-11-07T12:37:45.313Z,12.10
2018-11-07T12:40:14.919Z,12.68
2018-11-07T12:42:43.989Z,12.82
2018-11-07T12:45:14.116Z,11.18
2018-11-07T12:47:43.103Z,12.30
2018-11-07T12:50:17.516Z,12.05
2018-11-07T12:52:47.008Z,11.68
2018-11-07T12:55:16.596Z,11.33
2018-11-07T12:57:45.621Z,12.18
2018-11-07T13:00:17.145Z,11.10
2018-11-07T13:02:46.136Z,11.35
2018-11-07T13:05:16.876Z,11.25
2018-11-07T13:07:46.872Z,10.15
2018-11-07T13:10:17.041Z,9.65
2018-11-07T13:12:46.453Z,9.85
2018-11-07T13:15:15.887Z,7.90
2018-11-07T13:17:45.723Z,9.00
2018-11-07T13:20:16.849Z,7.90
2018-11-07T13:22:47.008Z,8.18
2018-11-07T13:25:16.726Z,7.67
2018-11-07T13:27:45.896Z,8.37
2018-11-07T13:30:16.065Z,8.80
2018-11-07T13:32:45.020Z,8.57
2018-11-07T13:35:14.810Z,8.33
2018-11-07T13:37:44.960Z,8.50
2018-11-07T13:40:15.770Z,8.07
2018-11-07T13:42:44.720Z,8.17
2018-11-07T13:45:15.989Z,8.10
2018-11-07T13:47:45.939Z,8.17
2018-11-07T13:50:15.476Z,8.00
2018-11-07T13:52:44.391Z,8.23
2018-11-07T13:55:14.104Z,7.40
2018-11-07T13:57:43.400Z,7.80
2018-11-07T14:00:15.300Z,7.97
2018-11-07T14:02:44.639Z,8.43
2018-11-07T14:05:13.844Z,7.80
2018-11-07T14:07:42.768Z,9.43
2018-11-07T14:10:13.971Z,8.30
2018-11-07T14:12:43.080Z,8.23
2018-11-07T14:15:13.200Z,8.03
2018-11-07T14:17:42.625Z,9.00
2018-11-07T14:20:11.659Z,7.37
2018-11-07T14:22:40.932Z,7.13
2018-11-07T14:25:10.562Z,7.23
2018-11-07T14:27:39.694Z,6.50
2018-11-07T14:30:10.142Z,6.90
2018-11-07T14:32:42.744Z,7.33
2018-11-07T14:35:11.960Z,7.43
2018-11-07T14:37:40.995Z,7.13
2018-11-07T14:40:10.117Z,7.43
2018-11-07T14:42:39.335Z,7.70
2018-11-07T14:45:09.417Z,7.23
2018-11-07T14:47:38.488Z,7.73
2018-11-07T14:50:08.525Z,7.83
2018-11-07T14:52:37.536Z,8.20
2018-11-07T14:55:06.962Z,8.63
2018-11-07T14:57:36.301Z,8.83
2018-11-07T15:00:09.647Z,8.70
2018-11-07T15:02:39.108Z,8.13
2018-11-07T15:05:09.339Z,9.33
2018-11-07T15:07:38.427Z,9.10
2018-11-07T15:10:08.303Z,8.90
2018-11-07T15:12:37.447Z,8.27
2018-11-07T15:15:08.301Z,8.23
2018-11-07T15:17:37.281Z,10.13
2018-11-07T15:20:07.148Z,8.80
2018-11-07T15:22:36.419Z,8.87
2018-11-07T15:25:06.319Z,10.83
2018-11-07T15:27:35.196Z,9.60
2018-11-07T15:30:04.286Z,10.00
2018-11-07T15:32:33.219Z,9.57
2018-11-07T15:35:02.148Z,9.57
2018-11-07T15:37:31.096Z,10.20
2018-11-07T15:40:00.052Z,9.20
2018-11-07T15:42:28.956Z,8.73
2018-11-07T15:44:58.029Z,9.08
2018-11-07T15:47:26.973Z,8.40
2018-11-07T15:50:01.322Z,8.10
2018-11-07T15:52:30.488Z,8.30
2018-11-07T15:54:59.972Z,8.65
2018-11-07T15:57:29.068Z,8.40
2018-11-07T15:59:58.195Z,7.70
2018-11-07T16:02:27.073Z,8.10
2018-11-07T16:04:56.211Z,7.47
2018-11-07T16:07:25.166Z,8.10
2018-11-07T16:09:54.129Z,8.13
2018-11-07T16:12:23.138Z,7.57
2018-11-07T16:14:52.128Z,7.70
2018-11-07T16:17:21.106Z,8.20
2018-11-07T16:19:50.651Z,8.07
2018-11-07T16:22:19.565Z,7.73
2018-11-07T16:24:48.536Z,7.53
2018-11-07T16:27:17.510Z,7.30
2018-11-07T16:29:46.705Z,7.17
2018-11-07T16:32:15.664Z,7.83
2018-11-07T16:34:44.922Z,7.27
2018-11-07T16:37:13.860Z,7.53
2018-11-07T16:39:42.791Z,7.33
2018-11-07T16:42:11.700Z,7.43
2018-11-07T16:44:40.635Z,9.03
2018-11-07T16:47:09.681Z,7.67
2018-11-07T16:49:38.503Z,7.57
2018-11-07T16:52:08.089Z,7.23
2018-11-07T16:54:37.019Z,6.90
2018-11-07T16:57:06.460Z,7.30
2018-11-07T16:59:35.568Z,7.67
2018-11-07T17:02:04.900Z,7.37
2018-11-07T17:04:33.855Z,7.10
2018-11-07T17:07:03.398Z,7.07
2018-11-07T17:09:32.395Z,6.57
2018-11-07T17:12:01.673Z,6.93
2018-11-07T17:14:30.739Z,6.70
2018-11-07T17:16:59.681Z,7.00
2018-11-07T17:19:28.623Z,7.07
2018-11-07T17:21:57.637Z,7.23
2018-11-07T17:24:27.139Z,6.87
2018-11-07T17:26:57.228Z,7.30
2018-11-07T17:29:26.627Z,7.33
2018-11-07T17:31:55.996Z,7.40
2018-11-07T17:34:25.263Z,8.33
2018-11-07T17:36:54.205Z,7.57
2018-11-07T17:39:23.133Z,8.50
2018-11-07T17:41:52.101Z,7.40
2018-11-07T17:44:21.171Z,7.57
2018-11-07T17:46:50.133Z,7.87
2018-11-07T17:49:19.472Z,9.93
2018-11-07T17:51:48.505Z,8.30
2018-11-07T17:54:17.608Z,9.40
2018-11-07T17:56:46.551Z,8.93
2018-11-07T17:59:15.499Z,11.30
2018-11-07T18:01:44.539Z,10.60
2018-11-07T18:04:13.872Z,10.27
2018-11-07T18:06:42.879Z,10.53
2018-11-07T18:09:12.283Z,10.27
2018-11-07T18:11:41.311Z,10.73
2018-11-07T18:14:10.252Z,11.27
2018-11-07T18:16:39.405Z,10.43
2018-11-07T18:19:09.022Z,9.67
2018-11-07T18:21:37.948Z,9.73
2018-11-07T18:24:06.901Z,9.47
2018-11-07T18:26:35.902Z,10.73
2018-11-07T18:29:05.581Z,10.23
2018-11-07T18:31:34.529Z,10.07
2018-11-07T18:34:03.571Z,10.30
2018-11-07T18:36:32.534Z,10.07
2018-11-07T18:39:01.565Z,9.90
2018-11-07T18:41:30.556Z,9.83
2018-11-07T18:43:59.556Z,9.17
2018-11-07T18:46:28.515Z,9.47
2018-11-07T18:48:57.472Z,9.20
2018-11-07T18:51:26.498Z,8.83
2018-11-07T18:53:55.414Z,9.00
2018-11-07T18:56:24.417Z,8.60
2018-11-07T18:58:54.420Z,8.53
2018-11-07T19:01:23.268Z,8.67
2018-11-07T19:04:06.088Z,8.60
2018-11-07T19:06:38.770Z,9.00
2018-11-07T19:09:08.333Z,8.63
2018-11-07T19:48:41.355Z,8.70
2018-11-07T19:51:10.378Z,6.67
2018-11-07T19:53:39.508Z,6.83
2018-11-07T19:56:08.451Z,6.80
2018-11-07T19:58:37.532Z,6.47
2018-11-07T20:01:06.497Z,6.73
2018-11-07T20:03:35.435Z,7.07
2018-11-07T20:06:04.614Z,7.20
2018-11-07T20:08:33.614Z,7.20
2018-11-07T20:11:02.792Z,6.57
2018-11-07T20:13:32.183Z,7.20
2018-11-07T20:16:01.494Z,7.77
2018-11-07T20:18:30.475Z,7.47
2018-11-07T20:20:59.558Z,7.15
2018-11-07T20:23:28.586Z,6.93
2018-11-07T20:25:57.667Z,7.43
2018-11-07T20:28:26.683Z,7.03
2018-11-07T20:30:55.759Z,8.00
2018-11-07T20:33:24.696Z,7.83
2018-11-07T20:35:53.910Z,6.73
2018-11-07T20:38:22.792Z,7.20
2018-11-07T20:40:51.922Z,6.77
2018-11-07T20:43:21.060Z,7.27
2018-11-07T20:45:50.917Z,7.70
2018-11-07T20:48:20.024Z,7.37
2018-11-07T20:50:48.976Z,6.63
2018-11-07T20:53:18.056Z,7.10
2018-11-07T20:55:47.080Z,6.93
2018-11-07T20:58:16.400Z,6.93
2018-11-07T21:00:45.475Z,6.93
2018-11-07T21:03:14.520Z,7.10
2018-11-07T21:05:43.612Z,6.77
2018-11-07T21:08:12.592Z,7.93
2018-11-07T21:10:41.797Z,7.33
2018-11-07T21:13:10.965Z,7.40
2018-11-07T21:15:41.160Z,8.98
2018-11-07T21:18:10.639Z,8.08
2018-11-07T21:20:40.987Z,7.80
2018-11-07T21:23:10.044Z,8.33
2018-11-07T21:25:39.857Z,7.97
2018-11-07T21:28:09.821Z,7.60
2018-11-07T21:30:38.900Z,7.60
2018-11-07T21:33:07.866Z,7.90
2018-11-07T21:35:37.341Z,8.00
2018-11-07T21:38:06.449Z,7.80
2018-11-07T21:40:35.947Z,8.53
2018-11-07T21:43:05.518Z,8.17
2018-11-07T21:45:34.395Z,7.73
2018-11-07T21:48:03.711Z,8.33
2018-11-07T21:50:32.910Z,8.90
2018-11-07T21:53:01.908Z,8.95
2018-11-07T21:55:31.479Z,9.50
2018-11-07T21:58:00.626Z,9.50
2018-11-07T22:00:30.191Z,8.90
2018-11-07T22:02:59.917Z,9.37
2018-11-07T22:05:29.286Z,9.27
2018-11-07T22:07:58.224Z,9.20
2018-11-07T22:10:27.147Z,9.43
2018-11-07T22:12:56.351Z,9.77
2018-11-07T22:15:25.611Z,8.93
2018-11-07T22:17:54.540Z,9.07
2018-11-07T22:20:23.554Z,10.13
2018-11-07T22:22:53.486Z,10.30
2018-11-07T22:25:22.428Z,9.03
2018-11-07T22:27:51.905Z,10.53
2018-11-07T22:30:21.487Z,10.37
2018-11-07T22:32:50.419Z,10.30
2018-11-07T22:35:19.389Z,11.20
2018-11-07T22:37:48.349Z,11.87
2018-11-07T22:40:18.563Z,10.43
2018-11-07T22:42:47.571Z,11.53
2018-11-07T22:45:16.587Z,11.70
2018-11-07T22:47:45.596Z,11.47
2018-11-07T22:50:15.404Z,10.93
2018-11-07T22:52:45.150Z,11.13
2018-11-07T22:55:14.452Z,12.10
2018-11-07T22:57:43.918Z,12.73
2018-11-07T23:00:31.460Z,12.20
2018-11-07T23:03:00.878Z,12.40
2018-11-07T23:05:30.231Z,13.00
2018-11-07T23:07:59.188Z,12.53
2018-11-07T23:10:28.121Z,13.37
2018-11-07T23:12:57.108Z,13.03
2018-11-07T23:16:00.658Z,14.23
2018-11-07T23:18:29.607Z,13.10
2018-11-07T23:20:58.597Z,12.73
2018-11-07T23:23:27.552Z,12.40
2018-11-07T23:25:56.701Z,12.47
2018-11-07T23:28:25.608Z,12.03
2018-11-07T23:30:54.757Z,11.97
2018-11-07T23:33:23.739Z,12.37
2018-11-07T23:35:52.711Z,11.50
2018-11-07T23:38:21.856Z,12.87
2018-11-07T23:40:51.108Z,12.70
2018-11-07T23:43:20.140Z,13.53
2018-11-07T23:45:49.092Z,12.47
2018-11-07T23:48:18.011Z,11.93
2018-11-07T23:50:46.915Z,13.20
2018-11-07T23:53:15.862Z,12.67
2018-11-07T23:55:44.848Z,12.67
2018-11-07T23:58:13.932Z,12.63
